sensor_id;sensor_type;location;lat;lon;timestamp;temperature;humidity
81726;DHT22;71135;16.738;-14.648;2023-08-12T00:01:15;20.60;70.60
81726;DHT22;71135;16.738;-14.648;2023-08-12T00:03:47;20.50;70.70
81726;DHT22;71135;16.738;-14.648;2023-08-12T00:06:16;20.50;70.70
81726;DHT22;71135;16.738;-14.648;2023-08-12T00:08:46;20.50;70.70
81726;DHT22;71135;16.738;-14.648;2023-08-12T00:11:18;20.50;70.80
81726;DHT22;71135;16.738;-14.648;2023-08-12T00:13:47;20.50;70.90
81726;DHT22;71135;16.738;-14.648;2023-08-12T00:16:16;20.40;71.00
81726;DHT22;71135;16.738;-14.648;2023-08-12T00:18:45;20.40;71.10
81726;DHT22;71135;16.738;-14.648;2023-08-12T00:21:15;20.40;71.20
81726;DHT22;71135;16.738;-14.648;2023-08-12T00:23:44;20.40;71.20
81726;DHT22;71135;16.738;-14.648;2023-08-12T00:26:14;20.40;71.20
81726;DHT22;71135;16.738;-14.648;2023-08-12T00:28:48;20.40;71.20
81726;DHT22;71135;16.738;-14.648;2023-08-12T00:31:17;20.40;71.20
81726;DHT22;71135;16.738;-14.648;2023-08-12T00:33:47;20.40;71.20
81726;DHT22;71135;16.738;-14.648;2023-08-12T00:36:16;20.40;71.20
81726;DHT22;71135;16.738;-14.648;2023-08-12T00:38:45;20.40;71.20
81726;DHT22;71135;16.738;-14.648;2023-08-12T00:41:15;20.40;71.20
81726;DHT22;71135;16.738;-14.648;2023-08-12T00:43:47;20.40;71.30
81726;DHT22;71135;16.738;-14.648;2023-08-12T00:46:16;20.40;71.40
81726;DHT22;71135;16.738;-14.648;2023-08-12T00:48:46;20.50;71.30
81726;DHT22;71135;16.738;-14.648;2023-08-12T00:51:16;20.40;71.20
81726;DHT22;71135;16.738;-14.648;2023-08-12T00:53:47;20.40;71.30
81726;DHT22;71135;16.738;-14.648;2023-08-12T00:56:17;20.40;71.40
81726;DHT22;71135;16.738;-14.648;2023-08-12T00:58:49;20.30;71.40
81726;DHT22;71135;16.738;-14.648;2023-08-12T01:01:18;20.30;71.30
81726;DHT22;71135;16.738;-14.648;2023-08-12T01:03:48;20.30;71.50
81726;DHT22;71135;16.738;-14.648;2023-08-12T01:06:17;20.30;71.40
81726;DHT22;71135;16.738;-14.648;2023-08-12T01:08:48;20.30;71.40
81726;DHT22;71135;16.738;-14.648;2023-08-12T01:11:25;20.30;71.40
81726;DHT22;71135;16.738;-14.648;2023-08-12T01:14:01;20.40;71.40
81726;DHT22;71135;16.738;-14.648;2023-08-12T01:16:35;20.40;71.50
81726;DHT22;71135;16.738;-14.648;2023-08-12T01:19:09;20.40;71.50
81726;DHT22;71135;16.738;-14.648;2023-08-12T01:21:41;20.50;71.40
81726;DHT22;71135;16.738;-14.648;2023-08-12T01:24:16;20.50;71.40
81726;DHT22;71135;16.738;-14.648;2023-08-12T01:26:45;20.50;71.40
81726;DHT22;71135;16.738;-14.648;2023-08-12T01:29:15;20.50;71.40
81726;DHT22;71135;16.738;-14.648;2023-08-12T01:31:48;20.50;71.30
81726;DHT22;71135;16.738;-14.648;2023-08-12T01:34:29;20.50;71.40
81726;DHT22;71135;16.738;-14.648;2023-08-12T01:37:03;20.50;71.40
81726;DHT22;71135;16.738;-14.648;2023-08-12T01:39:37;20.50;71.40
81726;DHT22;71135;16.738;-14.648;2023-08-12T01:42:08;20.50;71.30
81726;DHT22;71135;16.738;-14.648;2023-08-12T01:44:37;20.60;71.40
81726;DHT22;71135;16.738;-14.648;2023-08-12T01:47:08;20.60;71.20
81726;DHT22;71135;16.738;-14.648;2023-08-12T01:49:38;20.60;71.10
81726;DHT22;71135;16.738;-14.648;2023-08-12T01:52:07;20.60;71.10
81726;DHT22;71135;16.738;-14.648;2023-08-12T01:54:39;20.60;71.20
81726;DHT22;71135;16.738;-14.648;2023-08-12T01:57:08;20.60;71.20
81726;DHT22;71135;16.738;-14.648;2023-08-12T01:59:38;20.60;71.20
81726;DHT22;71135;16.738;-14.648;2023-08-12T02:02:10;20.70;71.20
81726;DHT22;71135;16.738;-14.648;2023-08-12T02:04:40;20.70;71.20
81726;DHT22;71135;16.738;-14.648;2023-08-12T02:07:10;20.70;71.20
81726;DHT22;71135;16.738;-14.648;2023-08-12T02:09:42;20.70;71.20
81726;DHT22;71135;16.738;-14.648;2023-08-12T02:12:12;20.70;71.30
81726;DHT22;71135;16.738;-14.648;2023-08-12T02:14:41;20.70;71.20
81726;DHT22;71135;16.738;-14.648;2023-08-12T02:17:10;20.70;71.20
81726;DHT22;71135;16.738;-14.648;2023-08-12T02:19:40;20.70;71.20
81726;DHT22;71135;16.738;-14.648;2023-08-12T02:22:10;20.80;71.30
81726;DHT22;71135;16.738;-14.648;2023-08-12T02:24:41;20.80;71.20
81726;DHT22;71135;16.738;-14.648;2023-08-12T02:27:11;20.80;71.20
81726;DHT22;71135;16.738;-14.648;2023-08-12T02:29:40;20.80;71.20
81726;DHT22;71135;16.738;-14.648;2023-08-12T02:32:09;20.70;71.20
81726;DHT22;71135;16.738;-14.648;2023-08-12T02:34:39;20.80;71.20
81726;DHT22;71135;16.738;-14.648;2023-08-12T02:37:10;20.80;71.20
81726;DHT22;71135;16.738;-14.648;2023-08-12T02:39:41;20.80;71.20
81726;DHT22;71135;16.738;-14.648;2023-08-12T02:42:11;20.70;71.20
81726;DHT22;71135;16.738;-14.648;2023-08-12T02:44:40;20.70;71.30
81726;DHT22;71135;16.738;-14.648;2023-08-12T02:47:09;20.70;71.40
81726;DHT22;71135;16.738;-14.648;2023-08-12T02:49:38;20.80;71.30
81726;DHT22;71135;16.738;-14.648;2023-08-12T02:52:09;20.80;71.30
81726;DHT22;71135;16.738;-14.648;2023-08-12T02:54:41;20.80;71.20
81726;DHT22;71135;16.738;-14.648;2023-08-12T02:57:10;20.80;71.30
81726;DHT22;71135;16.738;-14.648;2023-08-12T02:59:40;20.80;71.40
81726;DHT22;71135;16.738;-14.648;2023-08-12T03:02:09;20.80;71.40
81726;DHT22;71135;16.738;-14.648;2023-08-12T03:04:39;20.80;71.40
81726;DHT22;71135;16.738;-14.648;2023-08-12T03:07:08;20.80;71.50
81726;DHT22;71135;16.738;-14.648;2023-08-12T03:09:37;20.80;71.40
81726;DHT22;71135;16.738;-14.648;2023-08-12T03:12:10;20.90;71.40
81726;DHT22;71135;16.738;-14.648;2023-08-12T03:14:39;20.90;71.40
81726;DHT22;71135;16.738;-14.648;2023-08-12T03:17:10;20.90;71.40
81726;DHT22;71135;16.738;-14.648;2023-08-12T03:19:39;20.90;71.50
81726;DHT22;71135;16.738;-14.648;2023-08-12T03:22:09;20.90;71.40
81726;DHT22;71135;16.738;-14.648;2023-08-12T03:24:39;20.90;71.50
81726;DHT22;71135;16.738;-14.648;2023-08-12T03:27:12;20.90;71.40
81726;DHT22;71135;16.738;-14.648;2023-08-12T03:29:44;20.90;71.50
81726;DHT22;71135;16.738;-14.648;2023-08-12T03:32:14;20.90;71.50
81726;DHT22;71135;16.738;-14.648;2023-08-12T03:34:43;20.90;71.50
81726;DHT22;71135;16.738;-14.648;2023-08-12T03:37:13;20.90;71.50
81726;DHT22;71135;16.738;-14.648;2023-08-12T03:39:42;20.90;71.60
81726;DHT22;71135;16.738;-14.648;2023-08-12T03:42:14;20.90;71.60
81726;DHT22;71135;16.738;-14.648;2023-08-12T03:44:44;21.00;71.50
81726;DHT22;71135;16.738;-14.648;2023-08-12T03:47:13;20.90;71.60
81726;DHT22;71135;16.738;-14.648;2023-08-12T03:49:48;21.00;71.60
81726;DHT22;71135;16.738;-14.648;2023-08-12T03:52:17;21.00;71.60
81726;DHT22;71135;16.738;-14.648;2023-08-12T03:54:46;21.00;71.50
81726;DHT22;71135;16.738;-14.648;2023-08-12T03:57:18;21.00;71.50
81726;DHT22;71135;16.738;-14.648;2023-08-12T03:59:47;21.00;71.60
81726;DHT22;71135;16.738;-14.648;2023-08-12T04:02:17;21.00;71.60
81726;DHT22;71135;16.738;-14.648;2023-08-12T04:04:46;21.00;71.60
81726;DHT22;71135;16.738;-14.648;2023-08-12T04:07:15;21.00;71.60
81726;DHT22;71135;16.738;-14.648;2023-08-12T04:09:44;21.10;71.70
81726;DHT22;71135;16.738;-14.648;2023-08-12T04:12:14;21.00;71.70
81726;DHT22;71135;16.738;-14.648;2023-08-12T04:14:46;21.10;71.70
81726;DHT22;71135;16.738;-14.648;2023-08-12T04:17:15;21.10;71.60
81726;DHT22;71135;16.738;-14.648;2023-08-12T04:19:44;21.10;71.80
81726;DHT22;71135;16.738;-14.648;2023-08-12T04:22:13;21.10;71.90
81726;DHT22;71135;16.738;-14.648;2023-08-12T04:24:43;21.10;71.80
81726;DHT22;71135;16.738;-14.648;2023-08-12T04:27:13;21.10;71.70
81726;DHT22;71135;16.738;-14.648;2023-08-12T04:29:45;21.10;71.80
81726;DHT22;71135;16.738;-14.648;2023-08-12T04:32:15;21.10;71.90
81726;DHT22;71135;16.738;-14.648;2023-08-12T04:34:46;21.10;72.00
81726;DHT22;71135;16.738;-14.648;2023-08-12T04:37:15;21.10;72.20
81726;DHT22;71135;16.738;-14.648;2023-08-12T04:39:45;21.10;72.10
81726;DHT22;71135;16.738;-14.648;2023-08-12T04:42:14;21.10;72.10
81726;DHT22;71135;16.738;-14.648;2023-08-12T04:44:47;21.10;72.20
81726;DHT22;71135;16.738;-14.648;2023-08-12T04:47:16;21.10;72.20
81726;DHT22;71135;16.738;-14.648;2023-08-12T04:49:46;21.10;72.20
81726;DHT22;71135;16.738;-14.648;2023-08-12T04:52:15;21.20;72.30
81726;DHT22;71135;16.738;-14.648;2023-08-12T04:54:47;21.30;72.30
81726;DHT22;71135;16.738;-14.648;2023-08-12T04:57:16;21.30;72.30
81726;DHT22;71135;16.738;-14.648;2023-08-12T04:59:48;21.30;72.30
81726;DHT22;71135;16.738;-14.648;2023-08-12T05:02:18;21.30;72.20
81726;DHT22;71135;16.738;-14.648;2023-08-12T05:04:48;21.30;72.20
81726;DHT22;71135;16.738;-14.648;2023-08-12T05:07:18;21.40;72.20
81726;DHT22;71135;16.738;-14.648;2023-08-12T05:09:48;21.40;72.20
81726;DHT22;71135;16.738;-14.648;2023-08-12T05:12:18;21.40;72.20
81726;DHT22;71135;16.738;-14.648;2023-08-12T05:14:50;21.40;72.20
81726;DHT22;71135;16.738;-14.648;2023-08-12T05:17:20;21.40;72.20
81726;DHT22;71135;16.738;-14.648;2023-08-12T05:19:49;21.40;72.20
81726;DHT22;71135;16.738;-14.648;2023-08-12T05:22:19;21.50;72.20
81726;DHT22;71135;16.738;-14.648;2023-08-12T05:24:48;21.50;72.20
81726;DHT22;71135;16.738;-14.648;2023-08-12T05:27:17;21.50;72.10
81726;DHT22;71135;16.738;-14.648;2023-08-12T05:29:49;21.50;72.10
81726;DHT22;71135;16.738;-14.648;2023-08-12T05:32:19;21.50;72.20
81726;DHT22;71135;16.738;-14.648;2023-08-12T05:34:50;21.50;72.10
81726;DHT22;71135;16.738;-14.648;2023-08-12T05:37:19;21.50;72.10
81726;DHT22;71135;16.738;-14.648;2023-08-12T05:39:49;21.50;72.10
81726;DHT22;71135;16.738;-14.648;2023-08-12T05:42:18;21.50;72.10
81726;DHT22;71135;16.738;-14.648;2023-08-12T05:44:50;21.50;72.10
81726;DHT22;71135;16.738;-14.648;2023-08-12T05:47:19;21.50;72.10
81726;DHT22;71135;16.738;-14.648;2023-08-12T05:49:48;21.50;72.10
81726;DHT22;71135;16.738;-14.648;2023-08-12T05:52:18;21.50;72.10
81726;DHT22;71135;16.738;-14.648;2023-08-12T05:54:47;21.60;72.00
81726;DHT22;71135;16.738;-14.648;2023-08-12T05:57:16;21.60;72.10
81726;DHT22;71135;16.738;-14.648;2023-08-12T05:59:46;21.60;72.10
81726;DHT22;71135;16.738;-14.648;2023-08-12T06:02:18;21.60;72.10
81726;DHT22;71135;16.738;-14.648;2023-08-12T06:04:47;21.70;72.10
81726;DHT22;71135;16.738;-14.648;2023-08-12T06:07:16;21.70;72.20
81726;DHT22;71135;16.738;-14.648;2023-08-12T06:09:45;21.70;72.20
81726;DHT22;71135;16.738;-14.648;2023-08-12T06:12:15;21.70;72.10
81726;DHT22;71135;16.738;-14.648;2023-08-12T06:14:44;21.80;71.90
81726;DHT22;71135;16.738;-14.648;2023-08-12T06:17:13;21.80;72.00
81726;DHT22;71135;16.738;-14.648;2023-08-12T06:19:45;21.90;72.00
81726;DHT22;71135;16.738;-14.648;2023-08-12T06:22:14;21.90;72.00
81726;DHT22;71135;16.738;-14.648;2023-08-12T06:24:44;21.90;72.00
81726;DHT22;71135;16.738;-14.648;2023-08-12T06:27:13;21.90;71.90
81726;DHT22;71135;16.738;-14.648;2023-08-12T06:29:42;21.90;71.80
81726;DHT22;71135;16.738;-14.648;2023-08-12T06:32:12;21.90;71.90
81726;DHT22;71135;16.738;-14.648;2023-08-12T06:34:41;21.90;71.90
81726;DHT22;71135;16.738;-14.648;2023-08-12T06:37:13;21.90;71.90
81726;DHT22;71135;16.738;-14.648;2023-08-12T06:39:43;21.90;72.10
81726;DHT22;71135;16.738;-14.648;2023-08-12T06:42:12;21.90;72.20
81726;DHT22;71135;16.738;-14.648;2023-08-12T06:44:41;21.90;72.20
81726;DHT22;71135;16.738;-14.648;2023-08-12T06:47:11;21.90;72.40
81726;DHT22;71135;16.738;-14.648;2023-08-12T06:49:40;21.90;72.30
81726;DHT22;71135;16.738;-14.648;2023-08-12T06:52:09;21.90;72.30
81726;DHT22;71135;16.738;-14.648;2023-08-12T06:54:41;21.90;72.50
81726;DHT22;71135;16.738;-14.648;2023-08-12T06:57:11;21.90;72.50
81726;DHT22;71135;16.738;-14.648;2023-08-12T06:59:40;21.80;72.60
81726;DHT22;71135;16.738;-14.648;2023-08-12T07:02:09;21.70;72.90
81726;DHT22;71135;16.738;-14.648;2023-08-12T07:04:39;21.70;73.10
81726;DHT22;71135;16.738;-14.648;2023-08-12T07:07:08;21.70;73.40
81726;DHT22;71135;16.738;-14.648;2023-08-12T07:09:37;21.60;73.60
81726;DHT22;71135;16.738;-14.648;2023-08-12T07:12:09;21.50;73.80
81726;DHT22;71135;16.738;-14.648;2023-08-12T07:14:39;21.50;74.10
81726;DHT22;71135;16.738;-14.648;2023-08-12T07:17:08;21.50;74.20
81726;DHT22;71135;16.738;-14.648;2023-08-12T07:19:37;21.40;74.40
81726;DHT22;71135;16.738;-14.648;2023-08-12T07:22:07;21.40;74.60
81726;DHT22;71135;16.738;-14.648;2023-08-12T07:24:36;21.30;74.70
81726;DHT22;71135;16.738;-14.648;2023-08-12T07:27:05;21.30;74.90
81726;DHT22;71135;16.738;-14.648;2023-08-12T07:29:40;21.30;75.00
81726;DHT22;71135;16.738;-14.648;2023-08-12T07:32:17;21.30;75.10
81726;DHT22;71135;16.738;-14.648;2023-08-12T07:39:00;21.30;75.20
81726;DHT22;71135;16.738;-14.648;2023-08-12T07:41:52;21.20;75.30
81726;DHT22;71135;16.738;-14.648;2023-08-12T07:44:27;21.10;75.40
81726;DHT22;71135;16.738;-14.648;2023-08-12T07:47:05;21.20;75.50
81726;DHT22;71135;16.738;-14.648;2023-08-12T07:49:38;21.30;75.40
81726;DHT22;71135;16.738;-14.648;2023-08-12T08:00:15;21.30;75.30
81726;DHT22;71135;16.738;-14.648;2023-08-12T08:07:23;21.40;75.10
81726;DHT22;71135;16.738;-14.648;2023-08-12T08:17:15;21.30;75.00
81726;DHT22;71135;16.738;-14.648;2023-08-12T08:20:49;21.30;75.00
81726;DHT22;71135;16.738;-14.648;2023-08-12T08:56:52;21.10;75.50
81726;DHT22;71135;16.738;-14.648;2023-08-12T09:01:05;21.10;75.50
81726;DHT22;71135;16.738;-14.648;2023-08-12T09:18:11;21.10;74.70
81726;DHT22;71135;16.738;-14.648;2023-08-12T09:21:41;20.80;72.90
81726;DHT22;71135;16.738;-14.648;2023-08-12T09:38:40;19.70;73.20
81726;DHT22;71135;16.738;-14.648;2023-08-12T09:41:22;19.60;73.50
81726;DHT22;71135;16.738;-14.648;2023-08-12T09:43:58;19.60;73.60
81726;DHT22;71135;16.738;-14.648;2023-08-12T09:46:52;19.50;73.80
81726;DHT22;71135;16.738;-14.648;2023-08-12T09:49:54;19.50;74.10
81726;DHT22;71135;16.738;-14.648;2023-08-12T09:56:25;19.60;74.20
81726;DHT22;71135;16.738;-14.648;2023-08-12T09:59:33;19.90;74.30
81726;DHT22;71135;16.738;-14.648;2023-08-12T10:02:43;20.20;73.40
81726;DHT22;71135;16.738;-14.648;2023-08-12T10:17:35;20.80;72.60
81726;DHT22;71135;16.738;-14.648;2023-08-12T10:21:04;20.80;72.70
81726;DHT22;71135;16.738;-14.648;2023-08-12T10:24:06;20.90;72.70
81726;DHT22;71135;16.738;-14.648;2023-08-12T10:30:53;21.30;72.10
81726;DHT22;71135;16.738;-14.648;2023-08-12T10:37:53;21.50;71.20
81726;DHT22;71135;16.738;-14.648;2023-08-12T10:45:16;21.70;71.40
81726;DHT22;71135;16.738;-14.648;2023-08-12T10:52:43;22.50;69.40
81726;DHT22;71135;16.738;-14.648;2023-08-12T10:56:08;22.60;67.90
81726;DHT22;71135;16.738;-14.648;2023-08-12T11:05:13;22.90;66.70
81726;DHT22;71135;16.738;-14.648;2023-08-12T11:07:11;23.00;66.50
81726;DHT22;71135;16.738;-14.648;2023-08-12T11:10:51;22.90;66.70
81726;DHT22;71135;16.738;-14.648;2023-08-12T11:54:25;36.50;43.20
81726;DHT22;71135;16.738;-14.648;2023-08-12T11:57:43;36.10;44.40
81726;DHT22;71135;16.738;-14.648;2023-08-12T12:01:06;35.80;44.30
81726;DHT22;71135;16.738;-14.648;2023-08-12T12:34:34;29.50;51.30
81726;DHT22;71135;16.738;-14.648;2023-08-12T12:41:35;28.90;51.90
81726;DHT22;71135;16.738;-14.648;2023-08-12T12:44:49;28.50;50.90
81726;DHT22;71135;16.738;-14.648;2023-08-12T12:48:57;28.30;53.40
81726;DHT22;71135;16.738;-14.648;2023-08-12T13:03:33;27.80;54.00
81726;DHT22;71135;16.738;-14.648;2023-08-12T13:20:08;27.40;54.20
81726;DHT22;71135;16.738;-14.648;2023-08-12T13:52:26;26.70;53.10
81726;DHT22;71135;16.738;-14.648;2023-08-12T14:02:56;26.60;53.30
81726;DHT22;71135;16.738;-14.648;2023-08-12T14:05:43;26.50;53.50
81726;DHT22;71135;16.738;-14.648;2023-08-12T14:11:23;26.50;53.70
81726;DHT22;71135;16.738;-14.648;2023-08-12T14:13:57;26.40;53.20
81726;DHT22;71135;16.738;-14.648;2023-08-12T14:16:30;26.40;53.30
81726;DHT22;71135;16.738;-14.648;2023-08-12T14:19:01;26.40;53.50
81726;DHT22;71135;16.738;-14.648;2023-08-12T14:21:33;26.40;52.90
81726;DHT22;71135;16.738;-14.648;2023-08-12T14:24:03;26.40;53.90
81726;DHT22;71135;16.738;-14.648;2023-08-12T14:26:32;26.40;54.00
81726;DHT22;71135;16.738;-14.648;2023-08-12T14:29:01;26.40;53.20
81726;DHT22;71135;16.738;-14.648;2023-08-12T14:31:31;26.30;53.60
81726;DHT22;71135;16.738;-14.648;2023-08-12T14:34:00;26.30;52.50
81726;DHT22;71135;16.738;-14.648;2023-08-12T14:36:33;26.20;53.80
81726;DHT22;71135;16.738;-14.648;2023-08-12T14:39:02;26.20;53.80
81726;DHT22;71135;16.738;-14.648;2023-08-12T14:41:31;26.10;53.30
81726;DHT22;71135;16.738;-14.648;2023-08-12T14:44:01;26.00;53.00
81726;DHT22;71135;16.738;-14.648;2023-08-12T14:46:30;26.00;53.30
81726;DHT22;71135;16.738;-14.648;2023-08-12T14:49:00;26.00;53.50
81726;DHT22;71135;16.738;-14.648;2023-08-12T14:51:33;25.90;54.10
81726;DHT22;71135;16.738;-14.648;2023-08-12T14:54:02;25.80;53.70
81726;DHT22;71135;16.738;-14.648;2023-08-12T14:56:32;25.80;53.20
81726;DHT22;71135;16.738;-14.648;2023-08-12T14:59:01;25.80;53.80
81726;DHT22;71135;16.738;-14.648;2023-08-12T15:01:30;25.60;54.00
81726;DHT22;71135;16.738;-14.648;2023-08-12T15:04:00;25.60;53.50
81726;DHT22;71135;16.738;-14.648;2023-08-12T15:06:29;25.60;53.70
81726;DHT22;71135;16.738;-14.648;2023-08-12T15:09:01;25.50;53.20
81726;DHT22;71135;16.738;-14.648;2023-08-12T15:11:31;25.40;52.70
81726;DHT22;71135;16.738;-14.648;2023-08-12T15:14:01;25.30;52.70
81726;DHT22;71135;16.738;-14.648;2023-08-12T15:16:30;25.20;52.80
81726;DHT22;71135;16.738;-14.648;2023-08-12T15:19:00;25.00;52.80
81726;DHT22;71135;16.738;-14.648;2023-08-12T15:21:29;25.00;53.40
81726;DHT22;71135;16.738;-14.648;2023-08-12T15:24:01;25.00;53.70
81726;DHT22;71135;16.738;-14.648;2023-08-12T15:26:31;25.00;53.70
81726;DHT22;71135;16.738;-14.648;2023-08-12T15:29:00;25.00;53.50
81726;DHT22;71135;16.738;-14.648;2023-08-12T15:31:29;25.00;53.10
81726;DHT22;71135;16.738;-14.648;2023-08-12T15:33:58;25.00;53.30
81726;DHT22;71135;16.738;-14.648;2023-08-12T15:36:28;25.00;52.60
81726;DHT22;71135;16.738;-14.648;2023-08-12T15:38:57;24.90;53.40
81726;DHT22;71135;16.738;-14.648;2023-08-12T15:41:29;25.00;53.50
81726;DHT22;71135;16.738;-14.648;2023-08-12T15:43:58;25.00;52.80
81726;DHT22;71135;16.738;-14.648;2023-08-12T15:46:28;25.00;52.70
81726;DHT22;71135;16.738;-14.648;2023-08-12T15:48:57;24.90;53.00
81726;DHT22;71135;16.738;-14.648;2023-08-12T15:51:26;24.90;53.10
81726;DHT22;71135;16.738;-14.648;2023-08-12T15:53:56;24.80;53.40
81726;DHT22;71135;16.738;-14.648;2023-08-12T15:56:25;24.80;53.20
81726;DHT22;71135;16.738;-14.648;2023-08-12T15:58:57;24.70;54.00
81726;DHT22;71135;16.738;-14.648;2023-08-12T16:01:26;24.70;54.30
81726;DHT22;71135;16.738;-14.648;2023-08-12T16:03:57;24.70;54.10
81726;DHT22;71135;16.738;-14.648;2023-08-12T16:06:26;24.70;54.30
81726;DHT22;71135;16.738;-14.648;2023-08-12T16:08:56;24.60;54.30
81726;DHT22;71135;16.738;-14.648;2023-08-12T16:11:25;24.60;54.60
81726;DHT22;71135;16.738;-14.648;2023-08-12T16:13:57;24.60;53.30
81726;DHT22;71135;16.738;-14.648;2023-08-12T16:16:26;24.50;53.20
81726;DHT22;71135;16.738;-14.648;2023-08-12T16:18:55;24.40;53.80
81726;DHT22;71135;16.738;-14.648;2023-08-12T16:21:25;24.40;53.60
81726;DHT22;71135;16.738;-14.648;2023-08-12T16:23:54;24.40;53.70
81726;DHT22;71135;16.738;-14.648;2023-08-12T16:26:23;24.30;53.30
81726;DHT22;71135;16.738;-14.648;2023-08-12T16:28:52;24.20;53.20
81726;DHT22;71135;16.738;-14.648;2023-08-12T16:31:25;24.20;53.30
81726;DHT22;71135;16.738;-14.648;2023-08-12T16:33:54;24.20;53.10
81726;DHT22;71135;16.738;-14.648;2023-08-12T16:36:23;24.00;53.20
81726;DHT22;71135;16.738;-14.648;2023-08-12T16:38:53;24.00;53.20
81726;DHT22;71135;16.738;-14.648;2023-08-12T16:41:22;23.90;53.00
81726;DHT22;71135;16.738;-14.648;2023-08-12T16:43:51;23.80;53.10
81726;DHT22;71135;16.738;-14.648;2023-08-12T16:46:20;23.60;53.40
81726;DHT22;71135;16.738;-14.648;2023-08-12T16:48:52;23.50;53.90
81726;DHT22;71135;16.738;-14.648;2023-08-12T16:51:21;23.40;53.80
81726;DHT22;71135;16.738;-14.648;2023-08-12T16:53:51;23.30;54.00
81726;DHT22;71135;16.738;-14.648;2023-08-12T16:56:20;23.20;54.50
81726;DHT22;71135;16.738;-14.648;2023-08-12T16:58:49;23.20;54.90
81726;DHT22;71135;16.738;-14.648;2023-08-12T17:01:19;23.10;55.20
81726;DHT22;71135;16.738;-14.648;2023-08-12T17:03:48;23.00;55.60
81726;DHT22;71135;16.738;-14.648;2023-08-12T17:06:21;23.00;55.80
81726;DHT22;71135;16.738;-14.648;2023-08-12T17:08:50;22.90;55.70
81726;DHT22;71135;16.738;-14.648;2023-08-12T17:11:19;22.90;55.90
81726;DHT22;71135;16.738;-14.648;2023-08-12T17:13:48;22.80;56.20
81726;DHT22;71135;16.738;-14.648;2023-08-12T17:16:18;22.80;56.50
81726;DHT22;71135;16.738;-14.648;2023-08-12T17:18:47;22.70;56.20
81726;DHT22;71135;16.738;-14.648;2023-08-12T17:21:16;22.70;56.20
81726;DHT22;71135;16.738;-14.648;2023-08-12T17:23:48;22.60;56.20
81726;DHT22;71135;16.738;-14.648;2023-08-12T17:26:17;22.50;56.40
81726;DHT22;71135;16.738;-14.648;2023-08-12T17:28:46;22.50;56.80
81726;DHT22;71135;16.738;-14.648;2023-08-12T17:31:17;22.30;56.80
81726;DHT22;71135;16.738;-14.648;2023-08-12T17:33:48;22.30;56.90
81726;DHT22;71135;16.738;-14.648;2023-08-12T17:36:17;22.20;56.90
81726;DHT22;71135;16.738;-14.648;2023-08-12T17:38:49;22.10;57.10
81726;DHT22;71135;16.738;-14.648;2023-08-12T17:41:18;22.10;56.90
81726;DHT22;71135;16.738;-14.648;2023-08-12T17:43:47;22.00;57.20
81726;DHT22;71135;16.738;-14.648;2023-08-12T17:46:16;22.00;56.80
81726;DHT22;71135;16.738;-14.648;2023-08-12T17:48:45;21.90;57.00
81726;DHT22;71135;16.738;-14.648;2023-08-12T17:51:15;21.90;57.10
81726;DHT22;71135;16.738;-14.648;2023-08-12T17:53:45;21.90;57.40
81726;DHT22;71135;16.738;-14.648;2023-08-12T17:56:17;21.90;57.60
81726;DHT22;71135;16.738;-14.648;2023-08-12T17:58:46;21.80;57.80
81726;DHT22;71135;16.738;-14.648;2023-08-12T18:01:16;21.80;57.60
81726;DHT22;71135;16.738;-14.648;2023-08-12T18:03:45;21.70;57.40
81726;DHT22;71135;16.738;-14.648;2023-08-12T18:06:14;21.70;57.70
81726;DHT22;71135;16.738;-14.648;2023-08-12T18:08:43;21.70;57.70
81726;DHT22;71135;16.738;-14.648;2023-08-12T18:11:12;21.70;57.90
81726;DHT22;71135;16.738;-14.648;2023-08-12T18:13:44;21.70;58.00
81726;DHT22;71135;16.738;-14.648;2023-08-12T18:16:13;21.60;58.00
81726;DHT22;71135;16.738;-14.648;2023-08-12T18:18:43;21.50;58.20
81726;DHT22;71135;16.738;-14.648;2023-08-12T18:21:12;21.50;58.30
81726;DHT22;71135;16.738;-14.648;2023-08-12T18:23:41;21.50;58.10
81726;DHT22;71135;16.738;-14.648;2023-08-12T18:26:10;21.50;58.10
81726;DHT22;71135;16.738;-14.648;2023-08-12T18:28:39;21.40;58.20
81726;DHT22;71135;16.738;-14.648;2023-08-12T18:31:11;21.40;58.40
81726;DHT22;71135;16.738;-14.648;2023-08-12T18:33:40;21.30;58.60
81726;DHT22;71135;16.738;-14.648;2023-08-12T18:36:09;21.30;59.00
81726;DHT22;71135;16.738;-14.648;2023-08-12T18:38:39;21.20;59.00
81726;DHT22;71135;16.738;-14.648;2023-08-12T18:41:08;21.10;59.00
81726;DHT22;71135;16.738;-14.648;2023-08-12T18:43:37;21.10;59.10
81726;DHT22;71135;16.738;-14.648;2023-08-12T18:46:06;21.20;59.00
81726;DHT22;71135;16.738;-14.648;2023-08-12T18:48:38;21.20;59.10
81726;DHT22;71135;16.738;-14.648;2023-08-12T18:51:07;21.10;59.20
81726;DHT22;71135;16.738;-14.648;2023-08-12T18:53:36;21.10;59.30
81726;DHT22;71135;16.738;-14.648;2023-08-12T18:56:06;21.10;59.40
81726;DHT22;71135;16.738;-14.648;2023-08-12T18:58:35;21.10;59.70
81726;DHT22;71135;16.738;-14.648;2023-08-12T19:01:04;21.00;59.80
81726;DHT22;71135;16.738;-14.648;2023-08-12T19:03:33;21.00;59.80
81726;DHT22;71135;16.738;-14.648;2023-08-12T19:06:05;21.00;60.10
81726;DHT22;71135;16.738;-14.648;2023-08-12T19:08:34;20.90;59.80
81726;DHT22;71135;16.738;-14.648;2023-08-12T19:11:03;20.90;60.00
81726;DHT22;71135;16.738;-14.648;2023-08-12T19:13:33;20.80;59.60
81726;DHT22;71135;16.738;-14.648;2023-08-12T19:16:02;20.80;59.70
81726;DHT22;71135;16.738;-14.648;2023-08-12T19:18:32;20.70;59.20
81726;DHT22;71135;16.738;-14.648;2023-08-12T19:21:03;20.70;59.30
81726;DHT22;71135;16.738;-14.648;2023-08-12T19:23:33;20.60;59.60
81726;DHT22;71135;16.738;-14.648;2023-08-12T19:26:02;20.60;59.30
81726;DHT22;71135;16.738;-14.648;2023-08-12T19:28:31;20.50;59.50
81726;DHT22;71135;16.738;-14.648;2023-08-12T19:31:01;20.50;59.50
81726;DHT22;71135;16.738;-14.648;2023-08-12T19:33:30;20.50;59.60
81726;DHT22;71135;16.738;-14.648;2023-08-12T19:35:59;20.50;59.70
81726;DHT22;71135;16.738;-14.648;2023-08-12T19:38:31;20.50;59.70
81726;DHT22;71135;16.738;-14.648;2023-08-12T19:41:00;20.50;59.70
81726;DHT22;71135;16.738;-14.648;2023-08-12T19:43:30;20.50;59.70
81726;DHT22;71135;16.738;-14.648;2023-08-12T19:45:59;20.40;59.70
81726;DHT22;71135;16.738;-14.648;2023-08-12T19:48:29;20.30;59.70
81726;DHT22;71135;16.738;-14.648;2023-08-12T19:50:59;20.30;59.70
81726;DHT22;71135;16.738;-14.648;2023-08-12T19:53:30;20.30;59.80
81726;DHT22;71135;16.738;-14.648;2023-08-12T19:55:59;20.30;59.80
81726;DHT22;71135;16.738;-14.648;2023-08-12T19:58:29;20.20;59.80
81726;DHT22;71135;16.738;-14.648;2023-08-12T20:00:58;20.10;60.00
81726;DHT22;71135;16.738;-14.648;2023-08-12T20:03:27;20.10;60.10
81726;DHT22;71135;16.738;-14.648;2023-08-12T20:05:56;20.00;59.90